sensor_id;sensor_type;location;lat;lon;timestamp;P1;durP1;ratioP1;P2;durP2;ratioP2
75429;SDS011;64127;51.488;5.462;2022-12-18T00:01:36;27.13;;;18.23;;
75429;SDS011;64127;51.488;5.462;2022-12-18T00:04:14;27.23;;;18.57;;
75429;SDS011;64127;51.488;5.462;2022-12-18T00:06:53;28.97;;;18.87;;
75429;SDS011;64127;51.488;5.462;2022-12-18T00:09:25;28.10;;;18.67;;
75429;SDS011;64127;51.488;5.462;2022-12-18T00:12:10;28.73;;;19.10;;
75429;SDS011;64127;51.488;5.462;2022-12-18T00:14:45;27.03;;;17.73;;
75429;SDS011;64127;51.488;5.462;2022-12-18T00:17:17;26.10;;;17.97;;
75429;SDS011;64127;51.488;5.462;2022-12-18T00:19:50;28.33;;;18.50;;
75429;SDS011;64127;51.488;5.462;2022-12-18T00:22:22;30.07;;;19.67;;
75429;SDS011;64127;51.488;5.462;2022-12-18T00:24:54;30.20;;;18.70;;
75429;SDS011;64127;51.488;5.462;2022-12-18T00:27:25;29.77;;;19.27;;
75429;SDS011;64127;51.488;5.462;2022-12-18T00:29:57;27.27;;;18.80;;
75429;SDS011;64127;51.488;5.462;2022-12-18T00:32:29;27.47;;;18.17;;
75429;SDS011;64127;51.488;5.462;2022-12-18T00:35:01;27.70;;;18.97;;
75429;SDS011;64127;51.488;5.462;2022-12-18T00:37:34;27.90;;;18.33;;
75429;SDS011;64127;51.488;5.462;2022-12-18T00:40:06;26.63;;;18.27;;
75429;SDS011;64127;51.488;5.462;2022-12-18T00:42:39;29.30;;;18.97;;
75429;SDS011;64127;51.488;5.462;2022-12-18T00:45:30;27.13;;;17.30;;
75429;SDS011;64127;51.488;5.462;2022-12-18T00:48:02;26.47;;;17.67;;
75429;SDS011;64127;51.488;5.462;2022-12-18T00:50:34;25.87;;;17.87;;
75429;SDS011;64127;51.488;5.462;2022-12-18T00:53:06;29.90;;;18.53;;
75429;SDS011;64127;51.488;5.462;2022-12-18T00:55:39;28.23;;;18.30;;
75429;SDS011;64127;51.488;5.462;2022-12-18T00:58:12;26.03;;;17.37;;
75429;SDS011;64127;51.488;5.462;2022-12-18T01:00:47;26.10;;;18.13;;
75429;SDS011;64127;51.488;5.462;2022-12-18T01:03:19;27.30;;;17.83;;
75429;SDS011;64127;51.488;5.462;2022-12-18T01:05:51;29.80;;;18.10;;
75429;SDS011;64127;51.488;5.462;2022-12-18T01:08:23;27.03;;;17.27;;
75429;SDS011;64127;51.488;5.462;2022-12-18T01:10:55;26.60;;;16.93;;
75429;SDS011;64127;51.488;5.462;2022-12-18T01:13:27;24.20;;;17.20;;
75429;SDS011;64127;51.488;5.462;2022-12-18T01:15:59;26.47;;;17.30;;
75429;SDS011;64127;51.488;5.462;2022-12-18T01:18:31;23.03;;;17.03;;
75429;SDS011;64127;51.488;5.462;2022-12-18T01:21:10;24.23;;;17.00;;
75429;SDS011;64127;51.488;5.462;2022-12-18T01:23:50;25.03;;;17.80;;
75429;SDS011;64127;51.488;5.462;2022-12-18T01:26:25;23.27;;;16.30;;
75429;SDS011;64127;51.488;5.462;2022-12-18T01:29:00;25.00;;;16.20;;
75429;SDS011;64127;51.488;5.462;2022-12-18T01:31:33;23.53;;;16.47;;
75429;SDS011;64127;51.488;5.462;2022-12-18T01:34:05;28.10;;;17.23;;
75429;SDS011;64127;51.488;5.462;2022-12-18T01:36:38;24.97;;;17.27;;
75429;SDS011;64127;51.488;5.462;2022-12-18T01:39:11;25.27;;;16.67;;
75429;SDS011;64127;51.488;5.462;2022-12-18T01:41:45;25.37;;;16.70;;
75429;SDS011;64127;51.488;5.462;2022-12-18T01:47:49;24.27;;;15.33;;
75429;SDS011;64127;51.488;5.462;2022-12-18T01:50:36;23.70;;;15.67;;
75429;SDS011;64127;51.488;5.462;2022-12-18T01:53:16;23.23;;;15.83;;
75429;SDS011;64127;51.488;5.462;2022-12-18T01:55:53;25.00;;;16.93;;
75429;SDS011;64127;51.488;5.462;2022-12-18T01:58:35;24.37;;;16.43;;
75429;SDS011;64127;51.488;5.462;2022-12-18T02:01:11;22.63;;;15.83;;
75429;SDS011;64127;51.488;5.462;2022-12-18T02:03:44;22.40;;;16.07;;
75429;SDS011;64127;51.488;5.462;2022-12-18T02:14:32;22.60;;;15.20;;
75429;SDS011;64127;51.488;5.462;2022-12-18T02:17:18;22.70;;;15.60;;
75429;SDS011;64127;51.488;5.462;2022-12-18T02:23:28;20.50;;;14.27;;
75429;SDS011;64127;51.488;5.462;2022-12-18T02:26:36;22.30;;;14.17;;
75429;SDS011;64127;51.488;5.462;2022-12-18T02:29:42;21.07;;;14.67;;
75429;SDS011;64127;51.488;5.462;2022-12-18T02:32:24;20.83;;;13.87;;
75429;SDS011;64127;51.488;5.462;2022-12-18T02:35:03;22.20;;;14.17;;
75429;SDS011;64127;51.488;5.462;2022-12-18T02:37:38;21.20;;;14.63;;
75429;SDS011;64127;51.488;5.462;2022-12-18T02:40:15;19.47;;;14.23;;
75429;SDS011;64127;51.488;5.462;2022-12-18T02:42:49;22.27;;;14.23;;
75429;SDS011;64127;51.488;5.462;2022-12-18T02:45:21;20.53;;;14.40;;
75429;SDS011;64127;51.488;5.462;2022-12-18T02:47:53;21.37;;;14.77;;
75429;SDS011;64127;51.488;5.462;2022-12-18T02:50:35;18.70;;;13.30;;
75429;SDS011;64127;51.488;5.462;2022-12-18T02:56:38;19.33;;;13.73;;
75429;SDS011;64127;51.488;5.462;2022-12-18T02:59:29;17.83;;;13.40;;
75429;SDS011;64127;51.488;5.462;2022-12-18T03:07:52;20.90;;;13.93;;
75429;SDS011;64127;51.488;5.462;2022-12-18T03:10:36;20.53;;;14.20;;
75429;SDS011;64127;51.488;5.462;2022-12-18T03:13:24;18.23;;;12.70;;
75429;SDS011;64127;51.488;5.462;2022-12-18T03:16:09;19.77;;;14.20;;
75429;SDS011;64127;51.488;5.462;2022-12-18T03:18:50;19.93;;;13.87;;
75429;SDS011;64127;51.488;5.462;2022-12-18T03:21:36;19.27;;;13.70;;
75429;SDS011;64127;51.488;5.462;2022-12-18T03:24:15;17.37;;;12.57;;
75429;SDS011;64127;51.488;5.462;2022-12-18T03:26:54;20.53;;;14.03;;
75429;SDS011;64127;51.488;5.462;2022-12-18T03:32:39;18.37;;;13.53;;
75429;SDS011;64127;51.488;5.462;2022-12-18T03:35:30;18.00;;;12.93;;
75429;SDS011;64127;51.488;5.462;2022-12-18T03:38:08;20.60;;;13.40;;
75429;SDS011;64127;51.488;5.462;2022-12-18T03:40:57;17.87;;;13.07;;
75429;SDS011;64127;51.488;5.462;2022-12-18T03:49:39;18.40;;;12.97;;
75429;SDS011;64127;51.488;5.462;2022-12-18T03:52:52;17.67;;;12.13;;
75429;SDS011;64127;51.488;5.462;2022-12-18T03:55:34;16.83;;;12.90;;
75429;SDS011;64127;51.488;5.462;2022-12-18T03:58:07;16.97;;;12.47;;
75429;SDS011;64127;51.488;5.462;2022-12-18T04:00:44;18.23;;;12.87;;
75429;SDS011;64127;51.488;5.462;2022-12-18T04:03:20;17.20;;;12.67;;
75429;SDS011;64127;51.488;5.462;2022-12-18T04:06:07;16.93;;;12.50;;
75429;SDS011;64127;51.488;5.462;2022-12-18T04:08:42;18.50;;;12.60;;
75429;SDS011;64127;51.488;5.462;2022-12-18T04:11:15;18.57;;;13.13;;
75429;SDS011;64127;51.488;5.462;2022-12-18T04:13:47;18.63;;;12.37;;
75429;SDS011;64127;51.488;5.462;2022-12-18T04:16:19;15.40;;;11.77;;
75429;SDS011;64127;51.488;5.462;2022-12-18T04:18:51;18.30;;;12.60;;
75429;SDS011;64127;51.488;5.462;2022-12-18T04:21:24;16.07;;;12.00;;
75429;SDS011;64127;51.488;5.462;2022-12-18T04:23:57;16.37;;;11.70;;
75429;SDS011;64127;51.488;5.462;2022-12-18T04:26:29;18.30;;;12.07;;
75429;SDS011;64127;51.488;5.462;2022-12-18T04:29:00;17.00;;;11.63;;
75429;SDS011;64127;51.488;5.462;2022-12-18T04:31:32;18.10;;;11.77;;
75429;SDS011;64127;51.488;5.462;2022-12-18T04:34:04;14.30;;;11.47;;
75429;SDS011;64127;51.488;5.462;2022-12-18T04:36:36;16.40;;;11.23;;
75429;SDS011;64127;51.488;5.462;2022-12-18T04:39:08;14.87;;;11.00;;
75429;SDS011;64127;51.488;5.462;2022-12-18T04:41:40;16.07;;;11.57;;
75429;SDS011;64127;51.488;5.462;2022-12-18T04:44:12;14.40;;;11.00;;
75429;SDS011;64127;51.488;5.462;2022-12-18T04:46:45;15.63;;;11.40;;
75429;SDS011;64127;51.488;5.462;2022-12-18T04:49:17;14.07;;;11.23;;
75429;SDS011;64127;51.488;5.462;2022-12-18T04:51:49;15.37;;;10.67;;
75429;SDS011;64127;51.488;5.462;2022-12-18T04:54:21;17.43;;;11.33;;
75429;SDS011;64127;51.488;5.462;2022-12-18T04:56:53;18.93;;;11.90;;
75429;SDS011;64127;51.488;5.462;2022-12-18T04:59:25;15.63;;;10.87;;
75429;SDS011;64127;51.488;5.462;2022-12-18T05:01:57;15.57;;;10.93;;
75429;SDS011;64127;51.488;5.462;2022-12-18T05:04:29;14.07;;;10.87;;
75429;SDS011;64127;51.488;5.462;2022-12-18T05:07:01;15.30;;;10.57;;
75429;SDS011;64127;51.488;5.462;2022-12-18T05:09:33;14.53;;;10.07;;
75429;SDS011;64127;51.488;5.462;2022-12-18T05:12:05;13.20;;;10.20;;
75429;SDS011;64127;51.488;5.462;2022-12-18T05:14:37;15.10;;;11.33;;
75429;SDS011;64127;51.488;5.462;2022-12-18T05:17:09;13.00;;;9.70;;
75429;SDS011;64127;51.488;5.462;2022-12-18T05:19:41;14.30;;;9.83;;
75429;SDS011;64127;51.488;5.462;2022-12-18T05:22:13;14.33;;;10.70;;
75429;SDS011;64127;51.488;5.462;2022-12-18T05:24:45;15.63;;;10.50;;
75429;SDS011;64127;51.488;5.462;2022-12-18T05:27:17;14.67;;;10.17;;
75429;SDS011;64127;51.488;5.462;2022-12-18T05:29:50;13.47;;;10.53;;
75429;SDS011;64127;51.488;5.462;2022-12-18T05:32:22;15.03;;;10.27;;
75429;SDS011;64127;51.488;5.462;2022-12-18T05:34:54;12.43;;;9.60;;
75429;SDS011;64127;51.488;5.462;2022-12-18T05:37:28;14.50;;;10.40;;
75429;SDS011;64127;51.488;5.462;2022-12-18T05:40:00;12.80;;;9.70;;
75429;SDS011;64127;51.488;5.462;2022-12-18T05:42:33;16.00;;;10.00;;
75429;SDS011;64127;51.488;5.462;2022-12-18T05:45:05;13.87;;;10.00;;
75429;SDS011;64127;51.488;5.462;2022-12-18T05:47:38;13.13;;;10.13;;
75429;SDS011;64127;51.488;5.462;2022-12-18T05:50:10;13.43;;;10.27;;
75429;SDS011;64127;51.488;5.462;2022-12-18T05:52:42;13.83;;;9.83;;
75429;SDS011;64127;51.488;5.462;2022-12-18T05:55:14;13.50;;;10.43;;
75429;SDS011;64127;51.488;5.462;2022-12-18T05:57:46;13.07;;;9.43;;
75429;SDS011;64127;51.488;5.462;2022-12-18T06:00:18;12.70;;;9.50;;
75429;SDS011;64127;51.488;5.462;2022-12-18T06:02:50;13.33;;;10.20;;
75429;SDS011;64127;51.488;5.462;2022-12-18T06:05:22;12.63;;;9.33;;
75429;SDS011;64127;51.488;5.462;2022-12-18T06:07:54;14.87;;;9.93;;
75429;SDS011;64127;51.488;5.462;2022-12-18T06:10:26;14.30;;;10.33;;
75429;SDS011;64127;51.488;5.462;2022-12-18T06:12:58;13.77;;;9.50;;
75429;SDS011;64127;51.488;5.462;2022-12-18T06:15:31;12.90;;;9.37;;
75429;SDS011;64127;51.488;5.462;2022-12-18T06:18:03;15.07;;;10.70;;
75429;SDS011;64127;51.488;5.462;2022-12-18T06:20:35;12.63;;;9.73;;
75429;SDS011;64127;51.488;5.462;2022-12-18T06:23:10;13.10;;;9.60;;
75429;SDS011;64127;51.488;5.462;2022-12-18T06:25:42;16.30;;;11.17;;
75429;SDS011;64127;51.488;5.462;2022-12-18T06:28:14;14.07;;;10.03;;
75429;SDS011;64127;51.488;5.462;2022-12-18T06:30:47;11.87;;;9.43;;
75429;SDS011;64127;51.488;5.462;2022-12-18T06:33:20;13.27;;;9.27;;
75429;SDS011;64127;51.488;5.462;2022-12-18T06:35:52;12.70;;;9.67;;
75429;SDS011;64127;51.488;5.462;2022-12-18T06:38:31;12.43;;;9.17;;
75429;SDS011;64127;51.488;5.462;2022-12-18T06:41:08;13.03;;;9.13;;
75429;SDS011;64127;51.488;5.462;2022-12-18T06:43:43;12.27;;;8.43;;
75429;SDS011;64127;51.488;5.462;2022-12-18T06:46:15;12.43;;;9.17;;
75429;SDS011;64127;51.488;5.462;2022-12-18T06:48:48;12.80;;;9.20;;
75429;SDS011;64127;51.488;5.462;2022-12-18T06:51:22;13.77;;;9.50;;
75429;SDS011;64127;51.488;5.462;2022-12-18T06:53:55;12.90;;;8.80;;
75429;SDS011;64127;51.488;5.462;2022-12-18T06:56:27;12.77;;;9.50;;
75429;SDS011;64127;51.488;5.462;2022-12-18T06:58:59;13.70;;;9.87;;
75429;SDS011;64127;51.488;5.462;2022-12-18T07:01:31;15.13;;;9.90;;
75429;SDS011;64127;51.488;5.462;2022-12-18T07:04:04;13.90;;;9.63;;
75429;SDS011;64127;51.488;5.462;2022-12-18T07:06:36;12.20;;;10.00;;
75429;SDS011;64127;51.488;5.462;2022-12-18T07:09:08;14.23;;;9.67;;
75429;SDS011;64127;51.488;5.462;2022-12-18T07:11:40;12.50;;;9.23;;
75429;SDS011;64127;51.488;5.462;2022-12-18T07:14:12;13.43;;;9.47;;
75429;SDS011;64127;51.488;5.462;2022-12-18T07:16:43;13.50;;;9.83;;
75429;SDS011;64127;51.488;5.462;2022-12-18T07:19:15;12.93;;;9.80;;
75429;SDS011;64127;51.488;5.462;2022-12-18T07:21:47;12.93;;;10.03;;
75429;SDS011;64127;51.488;5.462;2022-12-18T07:24:21;12.23;;;9.30;;
75429;SDS011;64127;51.488;5.462;2022-12-18T07:26:53;13.17;;;10.40;;
75429;SDS011;64127;51.488;5.462;2022-12-18T07:29:25;12.50;;;9.87;;
75429;SDS011;64127;51.488;5.462;2022-12-18T07:31:57;12.97;;;9.73;;
75429;SDS011;64127;51.488;5.462;2022-12-18T07:34:29;14.10;;;10.20;;
75429;SDS011;64127;51.488;5.462;2022-12-18T07:37:01;11.93;;;8.93;;
75429;SDS011;64127;51.488;5.462;2022-12-18T07:39:33;13.03;;;9.50;;
75429;SDS011;64127;51.488;5.462;2022-12-18T07:42:05;12.33;;;9.67;;
75429;SDS011;64127;51.488;5.462;2022-12-18T07:44:58;13.87;;;9.70;;
75429;SDS011;64127;51.488;5.462;2022-12-18T07:47:33;11.93;;;9.93;;
75429;SDS011;64127;51.488;5.462;2022-12-18T07:50:07;13.27;;;10.23;;
75429;SDS011;64127;51.488;5.462;2022-12-18T07:52:39;15.57;;;11.53;;
75429;SDS011;64127;51.488;5.462;2022-12-18T07:55:11;15.00;;;10.40;;
75429;SDS011;64127;51.488;5.462;2022-12-18T07:57:43;16.03;;;10.93;;
75429;SDS011;64127;51.488;5.462;2022-12-18T08:00:30;13.17;;;10.33;;
75429;SDS011;64127;51.488;5.462;2022-12-18T08:03:02;15.40;;;11.00;;
75429;SDS011;64127;51.488;5.462;2022-12-18T08:05:36;17.03;;;11.67;;
75429;SDS011;64127;51.488;5.462;2022-12-18T08:08:08;14.27;;;10.43;;
75429;SDS011;64127;51.488;5.462;2022-12-18T08:10:41;14.97;;;10.97;;
75429;SDS011;64127;51.488;5.462;2022-12-18T08:13:13;15.13;;;11.37;;
75429;SDS011;64127;51.488;5.462;2022-12-18T08:15:45;13.70;;;10.40;;
75429;SDS011;64127;51.488;5.462;2022-12-18T08:18:16;14.00;;;10.70;;
75429;SDS011;64127;51.488;5.462;2022-12-18T08:20:48;16.20;;;11.13;;
75429;SDS011;64127;51.488;5.462;2022-12-18T08:23:20;15.03;;;10.80;;
75429;SDS011;64127;51.488;5.462;2022-12-18T08:25:57;15.73;;;11.13;;
75429;SDS011;64127;51.488;5.462;2022-12-18T08:28:29;15.07;;;10.80;;
75429;SDS011;64127;51.488;5.462;2022-12-18T08:31:01;15.83;;;11.73;;
75429;SDS011;64127;51.488;5.462;2022-12-18T08:33:34;16.90;;;12.43;;
75429;SDS011;64127;51.488;5.462;2022-12-18T08:36:08;13.83;;;10.87;;
75429;SDS011;64127;51.488;5.462;2022-12-18T08:38:41;14.03;;;11.07;;
75429;SDS011;64127;51.488;5.462;2022-12-18T08:41:13;15.57;;;11.27;;
75429;SDS011;64127;51.488;5.462;2022-12-18T08:43:47;15.43;;;11.30;;
75429;SDS011;64127;51.488;5.462;2022-12-18T08:46:39;15.07;;;11.50;;
75429;SDS011;64127;51.488;5.462;2022-12-18T08:49:13;15.20;;;11.43;;
75429;SDS011;64127;51.488;5.462;2022-12-18T08:51:45;14.97;;;11.07;;
75429;SDS011;64127;51.488;5.462;2022-12-18T08:54:17;16.20;;;11.73;;
75429;SDS011;64127;51.488;5.462;2022-12-18T08:56:49;16.57;;;11.97;;
75429;SDS011;64127;51.488;5.462;2022-12-18T08:59:22;15.87;;;11.23;;
75429;SDS011;64127;51.488;5.462;2022-12-18T09:01:54;16.80;;;11.67;;
75429;SDS011;64127;51.488;5.462;2022-12-18T09:04:26;15.67;;;11.93;;
75429;SDS011;64127;51.488;5.462;2022-12-18T09:06:58;16.43;;;12.03;;
75429;SDS011;64127;51.488;5.462;2022-12-18T09:09:30;15.07;;;11.77;;
75429;SDS011;64127;51.488;5.462;2022-12-18T09:12:02;16.43;;;12.60;;
75429;SDS011;64127;51.488;5.462;2022-12-18T09:14:35;15.17;;;11.40;;
75429;SDS011;64127;51.488;5.462;2022-12-18T09:17:07;16.20;;;11.80;;
75429;SDS011;64127;51.488;5.462;2022-12-18T09:19:39;17.03;;;11.70;;
75429;SDS011;64127;51.488;5.462;2022-12-18T09:22:11;15.77;;;11.40;;
75429;SDS011;64127;51.488;5.462;2022-12-18T09:24:43;15.10;;;11.57;;
75429;SDS011;64127;51.488;5.462;2022-12-18T09:27:15;16.97;;;12.77;;
75429;SDS011;64127;51.488;5.462;2022-12-18T09:29:47;15.80;;;11.73;;
75429;SDS011;64127;51.488;5.462;2022-12-18T09:32:19;17.10;;;12.33;;
75429;SDS011;64127;51.488;5.462;2022-12-18T09:34:52;15.47;;;11.93;;
75429;SDS011;64127;51.488;5.462;2022-12-18T09:37:24;14.73;;;11.60;;
75429;SDS011;64127;51.488;5.462;2022-12-18T09:39:56;15.63;;;12.27;;
75429;SDS011;64127;51.488;5.462;2022-12-18T09:42:28;16.77;;;12.20;;
75429;SDS011;64127;51.488;5.462;2022-12-18T09:45:01;14.57;;;11.43;;
75429;SDS011;64127;51.488;5.462;2022-12-18T09:47:35;16.50;;;12.10;;
75429;SDS011;64127;51.488;5.462;2022-12-18T09:50:20;15.47;;;11.70;;
75429;SDS011;64127;51.488;5.462;2022-12-18T09:53:12;16.67;;;11.37;;
75429;SDS011;64127;51.488;5.462;2022-12-18T09:55:58;17.50;;;12.10;;
75429;SDS011;64127;51.488;5.462;2022-12-18T09:58:41;15.73;;;11.37;;
75429;SDS011;64127;51.488;5.462;2022-12-18T10:01:32;16.83;;;11.67;;
75429;SDS011;64127;51.488;5.462;2022-12-18T10:04:14;17.00;;;11.93;;
75429;SDS011;64127;51.488;5.462;2022-12-18T10:09:41;16.47;;;12.10;;
75429;SDS011;64127;51.488;5.462;2022-12-18T10:12:53;16.43;;;12.50;;
75429;SDS011;64127;51.488;5.462;2022-12-18T10:16:11;17.93;;;13.27;;
75429;SDS011;64127;51.488;5.462;2022-12-18T10:22:03;14.50;;;11.57;;
75429;SDS011;64127;51.488;5.462;2022-12-18T10:27:58;15.60;;;11.60;;
75429;SDS011;64127;51.488;5.462;2022-12-18T10:30:42;14.30;;;11.53;;
75429;SDS011;64127;51.488;5.462;2022-12-18T10:33:16;14.37;;;12.07;;
75429;SDS011;64127;51.488;5.462;2022-12-18T10:36:00;14.97;;;11.67;;
75429;SDS011;64127;51.488;5.462;2022-12-18T10:38:34;16.53;;;12.00;;
75429;SDS011;64127;51.488;5.462;2022-12-18T10:41:27;15.23;;;12.27;;
75429;SDS011;64127;51.488;5.462;2022-12-18T10:44:19;17.10;;;12.57;;
75429;SDS011;64127;51.488;5.462;2022-12-18T10:46:55;15.50;;;11.90;;
75429;SDS011;64127;51.488;5.462;2022-12-18T10:49:47;15.43;;;12.23;;
75429;SDS011;64127;51.488;5.462;2022-12-18T10:52:22;14.73;;;11.30;;
75429;SDS011;64127;51.488;5.462;2022-12-18T10:54:58;17.47;;;12.83;;
75429;SDS011;64127;51.488;5.462;2022-12-18T10:57:35;16.17;;;11.90;;
75429;SDS011;64127;51.488;5.462;2022-12-18T11:00:28;17.53;;;12.53;;
75429;SDS011;64127;51.488;5.462;2022-12-18T11:03:01;16.57;;;12.13;;
75429;SDS011;64127;51.488;5.462;2022-12-18T11:05:34;14.97;;;12.23;;
75429;SDS011;64127;51.488;5.462;2022-12-18T11:08:11;16.17;;;11.97;;
75429;SDS011;64127;51.488;5.462;2022-12-18T11:10:55;16.40;;;12.93;;
75429;SDS011;64127;51.488;5.462;2022-12-18T11:13:28;14.77;;;11.33;;
75429;SDS011;64127;51.488;5.462;2022-12-18T11:16:02;18.97;;;13.00;;
75429;SDS011;64127;51.488;5.462;2022-12-18T11:18:35;16.50;;;11.83;;
75429;SDS011;64127;51.488;5.462;2022-12-18T11:21:11;16.23;;;12.37;;
75429;SDS011;64127;51.488;5.462;2022-12-18T11:23:52;17.53;;;12.53;;
75429;SDS011;64127;51.488;5.462;2022-12-18T11:26:33;16.33;;;12.63;;
75429;SDS011;64127;51.488;5.462;2022-12-18T11:29:14;18.83;;;13.27;;
75429;SDS011;64127;51.488;5.462;2022-12-18T11:31:51;17.77;;;13.47;;
75429;SDS011;64127;51.488;5.462;2022-12-18T11:34:46;14.87;;;11.80;;
75429;SDS011;64127;51.488;5.462;2022-12-18T11:37:29;15.37;;;11.73;;
75429;SDS011;64127;51.488;5.462;2022-12-18T11:40:12;16.57;;;12.00;;
75429;SDS011;64127;51.488;5.462;2022-12-18T11:43:01;17.00;;;12.43;;
75429;SDS011;64127;51.488;5.462;2022-12-18T11:46:05;17.80;;;13.00;;
75429;SDS011;64127;51.488;5.462;2022-12-18T11:49:29;16.20;;;11.93;;
75429;SDS011;64127;51.488;5.462;2022-12-18T11:52:18;15.30;;;11.67;;
75429;SDS011;64127;51.488;5.462;2022-12-18T11:55:00;16.13;;;12.63;;
75429;SDS011;64127;51.488;5.462;2022-12-18T12:00:49;15.37;;;12.20;;
75429;SDS011;64127;51.488;5.462;2022-12-18T12:04:12;17.13;;;12.60;;
75429;SDS011;64127;51.488;5.462;2022-12-18T12:07:31;16.17;;;12.53;;
75429;SDS011;64127;51.488;5.462;2022-12-18T12:10:14;16.40;;;11.80;;
75429;SDS011;64127;51.488;5.462;2022-12-18T12:28:36;15.70;;;12.67;;
75429;SDS011;64127;51.488;5.462;2022-12-18T12:40:20;15.70;;;12.17;;
75429;SDS011;64127;51.488;5.462;2022-12-18T12:46:10;15.67;;;12.40;;
75429;SDS011;64127;51.488;5.462;2022-12-18T12:48:54;18.23;;;13.00;;
75429;SDS011;64127;51.488;5.462;2022-12-18T12:51:38;16.70;;;12.47;;
75429;SDS011;64127;51.488;5.462;2022-12-18T12:54:17;16.20;;;12.77;;
75429;SDS011;64127;51.488;5.462;2022-12-18T13:08:22;15.40;;;12.00;;
75429;SDS011;64127;51.488;5.462;2022-12-18T13:11:01;17.83;;;13.23;;
75429;SDS011;64127;51.488;5.462;2022-12-18T13:14:10;16.83;;;12.43;;
75429;SDS011;64127;51.488;5.462;2022-12-18T13:20:03;15.53;;;12.50;;
75429;SDS011;64127;51.488;5.462;2022-12-18T13:22:44;16.97;;;13.03;;
75429;SDS011;64127;51.488;5.462;2022-12-18T13:25:31;14.97;;;12.43;;
75429;SDS011;64127;51.488;5.462;2022-12-18T13:30:56;19.27;;;13.43;;
75429;SDS011;64127;51.488;5.462;2022-12-18T13:36:03;21.67;;;13.30;;
75429;SDS011;64127;51.488;5.462;2022-12-18T13:38:44;18.33;;;12.73;;
75429;SDS011;64127;51.488;5.462;2022-12-18T13:41:26;16.47;;;12.93;;
75429;SDS011;64127;51.488;5.462;2022-12-18T13:47:27;16.73;;;12.63;;
75429;SDS011;64127;51.488;5.462;2022-12-18T13:50:22;15.23;;;12.03;;
75429;SDS011;64127;51.488;5.462;2022-12-18T13:53:05;16.33;;;12.47;;
75429;SDS011;64127;51.488;5.462;2022-12-18T13:55:38;15.67;;;12.47;;
75429;SDS011;64127;51.488;5.462;2022-12-18T13:58:16;18.03;;;12.30;;
75429;SDS011;64127;51.488;5.462;2022-12-18T14:00:49;17.90;;;12.43;;
75429;SDS011;64127;51.488;5.462;2022-12-18T14:03:23;15.97;;;12.67;;
75429;SDS011;64127;51.488;5.462;2022-12-18T14:06:02;17.77;;;13.23;;
75429;SDS011;64127;51.488;5.462;2022-12-18T14:08:40;16.87;;;13.30;;
75429;SDS011;64127;51.488;5.462;2022-12-18T14:11:20;18.13;;;13.87;;
75429;SDS011;64127;51.488;5.462;2022-12-18T14:13:57;17.50;;;12.93;;
75429;SDS011;64127;51.488;5.462;2022-12-18T14:16:29;16.90;;;13.47;;
75429;SDS011;64127;51.488;5.462;2022-12-18T14:19:03;15.73;;;12.60;;
75429;SDS011;64127;51.488;5.462;2022-12-18T14:21:47;15.60;;;12.10;;
75429;SDS011;64127;51.488;5.462;2022-12-18T14:24:21;15.03;;;11.93;;
75429;SDS011;64127;51.488;5.462;2022-12-18T14:26:53;15.00;;;12.47;;
75429;SDS011;64127;51.488;5.462;2022-12-18T14:29:26;16.43;;;12.80;;
75429;SDS011;64127;51.488;5.462;2022-12-18T14:32:04;18.23;;;13.40;;
75429;SDS011;64127;51.488;5.462;2022-12-18T14:34:52;18.47;;;13.20;;
75429;SDS011;64127;51.488;5.462;2022-12-18T14:37:25;17.43;;;12.90;;
75429;SDS011;64127;51.488;5.462;2022-12-18T14:39:59;19.00;;;13.77;;
75429;SDS011;64127;51.488;5.462;2022-12-18T14:42:41;19.07;;;14.10;;
75429;SDS011;64127;51.488;5.462;2022-12-18T14:48:18;17.67;;;12.97;;
75429;SDS011;64127;51.488;5.462;2022-12-18T14:51:15;18.43;;;12.73;;
75429;SDS011;64127;51.488;5.462;2022-12-18T14:56:34;15.97;;;12.90;;
75429;SDS011;64127;51.488;5.462;2022-12-18T14:59:13;18.03;;;13.20;;
75429;SDS011;64127;51.488;5.462;2022-12-18T15:02:09;17.57;;;13.27;;
75429;SDS011;64127;51.488;5.462;2022-12-18T15:05:04;17.63;;;13.47;;
75429;SDS011;64127;51.488;5.462;2022-12-18T15:07:53;17.60;;;13.47;;
75429;SDS011;64127;51.488;5.462;2022-12-18T15:10:33;17.20;;;13.30;;
75429;SDS011;64127;51.488;5.462;2022-12-18T15:13:07;16.57;;;13.20;;
75429;SDS011;64127;51.488;5.462;2022-12-18T15:15:50;16.97;;;13.07;;
75429;SDS011;64127;51.488;5.462;2022-12-18T15:18:32;19.23;;;13.67;;
75429;SDS011;64127;51.488;5.462;2022-12-18T15:21:14;17.50;;;13.07;;
75429;SDS011;64127;51.488;5.462;2022-12-18T15:23:50;16.07;;;12.63;;
75429;SDS011;64127;51.488;5.462;2022-12-18T15:26:23;22.37;;;14.20;;
75429;SDS011;64127;51.488;5.462;2022-12-18T15:28:56;18.13;;;14.10;;
75429;SDS011;64127;51.488;5.462;2022-12-18T15:31:31;18.90;;;14.00;;
75429;SDS011;64127;51.488;5.462;2022-12-18T15:34:14;16.97;;;13.90;;
75429;SDS011;64127;51.488;5.462;2022-12-18T15:36:52;18.23;;;13.70;;
75429;SDS011;64127;51.488;5.462;2022-12-18T15:39:24;17.80;;;14.23;;
75429;SDS011;64127;51.488;5.462;2022-12-18T15:41:56;18.97;;;14.23;;
75429;SDS011;64127;51.488;5.462;2022-12-18T15:44:46;18.63;;;14.67;;
75429;SDS011;64127;51.488;5.462;2022-12-18T15:47:19;17.90;;;13.97;;
75429;SDS011;64127;51.488;5.462;2022-12-18T15:49:51;17.67;;;13.87;;
75429;SDS011;64127;51.488;5.462;2022-12-18T15:52:23;16.53;;;13.73;;
75429;SDS011;64127;51.488;5.462;2022-12-18T15:54:57;19.30;;;14.63;;
75429;SDS011;64127;51.488;5.462;2022-12-18T15:57:47;21.57;;;14.70;;
75429;SDS011;64127;51.488;5.462;2022-12-18T16:00:20;19.63;;;14.63;;
75429;SDS011;64127;51.488;5.462;2022-12-18T16:02:52;17.53;;;14.17;;
75429;SDS011;64127;51.488;5.462;2022-12-18T16:05:24;18.73;;;14.37;;
75429;SDS011;64127;51.488;5.462;2022-12-18T16:08:00;18.00;;;14.13;;
75429;SDS011;64127;51.488;5.462;2022-12-18T16:10:32;18.07;;;14.07;;
75429;SDS011;64127;51.488;5.462;2022-12-18T16:13:04;20.40;;;14.23;;
75429;SDS011;64127;51.488;5.462;2022-12-18T16:15:37;19.83;;;14.50;;
75429;SDS011;64127;51.488;5.462;2022-12-18T16:18:09;19.00;;;14.43;;
75429;SDS011;64127;51.488;5.462;2022-12-18T16:20:41;18.00;;;14.70;;
75429;SDS011;64127;51.488;5.462;2022-12-18T16:23:13;18.60;;;14.73;;
75429;SDS011;64127;51.488;5.462;2022-12-18T16:25:45;18.00;;;14.87;;
75429;SDS011;64127;51.488;5.462;2022-12-18T16:28:17;17.63;;;14.47;;
75429;SDS011;64127;51.488;5.462;2022-12-18T16:30:49;18.17;;;14.33;;
75429;SDS011;64127;51.488;5.462;2022-12-18T16:33:21;18.00;;;14.03;;
75429;SDS011;64127;51.488;5.462;2022-12-18T16:35:53;18.73;;;14.87;;
75429;SDS011;64127;51.488;5.462;2022-12-18T16:38:25;18.37;;;13.90;;
75429;SDS011;64127;51.488;5.462;2022-12-18T16:40:57;20.10;;;14.47;;
75429;SDS011;64127;51.488;5.462;2022-12-18T16:43:48;18.00;;;14.10;;
75429;SDS011;64127;51.488;5.462;2022-12-18T16:46:25;18.20;;;14.30;;
75429;SDS011;64127;51.488;5.462;2022-12-18T16:48:58;19.83;;;14.83;;
75429;SDS011;64127;51.488;5.462;2022-12-18T16:51:30;18.17;;;14.77;;
75429;SDS011;64127;51.488;5.462;2022-12-18T16:54:02;19.57;;;14.67;;
75429;SDS011;64127;51.488;5.462;2022-12-18T16:56:41;18.47;;;14.60;;
75429;SDS011;64127;51.488;5.462;2022-12-18T16:59:13;18.00;;;14.33;;
75429;SDS011;64127;51.488;5.462;2022-12-18T17:01:45;19.95;;;15.48;;
75429;SDS011;64127;51.488;5.462;2022-12-18T17:04:18;19.17;;;14.57;;